Time;durP1;ratioP1;P1;durP2;ratioP2;P2;SDS_P1;SDS_P2;PMS_P1;PMS_P2;Temp;Humidity;BMP_temperature;BMP_pressure;BME280_temperature;BME280_humidity;BME280_pressure;Samples;Min_cycle;Max_cycle;Signal;HPM_P1;HPM_P2
2021/08/02 00:00:17;;;;;;;24.70;7.70;;;;;;;30.49;33.59;96857.19;5090460;28;20038;-72
2021/08/02 00:02:49;;;;;;;23.90;8.27;;;;;;;30.23;37.14;96871.38;5090296;28;20035;-73
2021/08/02 00:05:14;;;;;;;;;;;;;;;29.68;39.64;96878.06;5092080;28;20503;-72
2021/08/02 00:07:41;;;;;;;23.58;8.82;;;;;;;29.02;41.04;96889.78;5090262;28;19911;-73
2021/08/02 00:10:13;;;;;;;25.20;8.88;;;;;;;28.51;42.22;96882.59;5090335;28;20447;-72
2021/08/02 00:12:52;;;;;;;22.23;9.00;;;;;;;28.16;43.12;96886.84;5090017;28;20028;-73
2021/08/02 00:15:19;;;;;;;23.38;8.73;;;;;;;27.84;43.89;96885.13;5090466;28;20032;-73
2021/08/02 00:17:45;;;;;;;26.83;9.07;;;;;;;27.58;44.63;96886.06;5090121;28;20031;-73
2021/08/02 00:20:16;;;;;;;18.98;9.02;;;;;;;27.35;45.18;96886.53;5091403;28;20035;-73
2021/08/02 00:22:42;;;;;;;17.15;8.82;;;;;;;27.17;45.63;96880.88;5089955;28;20040;-74
2021/08/02 00:25:31;;;;;;;17.90;8.68;;;;;;;27.02;45.84;96874.78;5069282;28;20032;-76
2021/08/02 00:28:06;;;;;;;15.35;8.43;;;;;;;27.01;46.10;96873.09;5081958;28;20036;-74
2021/08/02 00:30:47;;;;;;;22.75;8.90;;;;;;;26.89;46.72;96863.81;5067359;28;20036;-77
2021/08/02 00:33:37;;;;;;;25.77;8.87;;;;;;;26.83;47.03;96873.75;5066472;28;20028;-75
2021/08/02 00:36:31;;;;;;;;;;;;;;;;;;;;;
2021/08/02 00:39:38;;;;;;;19.60;8.80;;;;;;;26.70;47.52;96870.97;5090119;28;20028;-75
2021/08/02 00:43:01;;;;;;;21.25;9.82;;;;;;;26.62;47.69;96873.97;5079287;28;20075;-75
2021/08/02 00:46:31;;;;;;;;;;;;;;;;;;;;;
2021/08/02 00:49:02;;;;;;;21.70;9.60;;;;;;;26.34;48.63;96844.00;5086503;28;20038;-74
2021/08/02 00:51:28;;;;;;;21.17;9.27;;;;;;;26.33;48.10;96850.53;5069899;28;20063;-74
2021/08/02 00:53:59;;;;;;;21.52;9.70;;;;;;;26.42;48.74;96879.44;5053216;28;20496;-73
2021/08/02 00:56:27;;;;;;;23.10;9.50;;;;;;;26.42;48.88;96872.28;5074017;28;20036;-74
2021/08/02 00:58:53;;;;;;;18.88;9.00;;;;;;;26.38;48.30;96860.88;5074809;28;20028;-71
2021/08/02 01:01:19;;;;;;;19.83;8.57;;;;;;;26.36;48.72;96863.00;5074900;28;20043;-73
2021/08/02 01:03:45;;;;;;;19.75;9.30;;;;;;;26.36;48.61;96858.31;5073389;28;20399;-74
2021/08/02 01:06:11;;;;;;;28.15;8.93;;;;;;;26.36;47.99;96846.53;5073578;28;20032;-74
2021/08/02 01:08:39;;;;;;;25.65;9.48;;;;;;;26.38;48.37;96844.41;5056915;28;20016;-73
2021/08/02 01:11:11;;;;;;;18.45;9.05;;;;;;;26.38;48.76;96839.78;5073312;28;20028;-73
2021/08/02 01:13:38;;;;;;;27.53;9.03;;;;;;;26.34;48.84;96852.22;5056747;28;20016;-74
2021/08/02 01:16:06;;;;;;;22.17;8.82;;;;;;;26.24;48.96;96843.56;5073024;28;20021;-74
2021/08/02 01:18:33;;;;;;;21.42;9.30;;;;;;;26.18;49.23;96849.88;5073479;28;20095;-74
2021/08/02 01:21:06;;;;;;;26.73;9.20;;;;;;;26.02;49.65;96839.31;5056295;28;20033;-74
2021/08/02 01:23:33;;;;;;;21.65;9.18;;;;;;;25.99;49.32;96838.88;5056571;28;20044;-74
2021/08/02 01:25:59;;;;;;;14.63;7.68;;;;;;;25.92;48.21;96844.34;5073078;28;20020;-74
2021/08/02 01:28:24;;;;;;;28.50;8.57;;;;;;;25.95;48.47;96843.94;5074490;28;20092;-73
2021/08/02 01:30:55;;;;;;;17.27;8.85;;;;;;;25.92;48.63;96841.59;5074049;28;20395;-74
2021/08/02 01:33:28;;;;;;;20.88;8.30;;;;;;;25.86;48.72;96826.84;5073082;28;20016;-74
2021/08/02 01:36:12;;;;;;;19.33;8.45;;;;;;;25.77;49.26;96825.34;5072965;28;20016;-75
2021/08/02 01:38:38;;;;;;;26.90;7.93;;;;;;;25.73;49.29;96823.22;5079888;28;20023;-74
2021/08/02 01:41:06;;;;;;;19.95;7.65;;;;;;;25.75;48.82;96827.44;5075846;28;20110;-74
2021/08/02 01:43:31;;;;;;;22.00;7.93;;;;;;;25.73;49.46;96806.78;5093344;28;20024;-74
2021/08/02 01:46:03;;;;;;;21.63;8.35;;;;;;;25.83;49.14;96804.47;5083826;28;20066;-74
2021/08/02 01:48:55;;;;;;;26.53;8.53;;;;;;;25.75;48.78;96810.13;5056187;28;20483;-74
2021/08/02 01:51:26;;;;;;;27.67;8.07;;;;;;;25.71;48.97;96803.41;5085490;28;20053;-74
2021/08/02 01:54:13;;;;;;;22.10;8.35;;;;;;;25.72;49.08;96821.50;5076062;28;20024;-74
2021/08/02 01:56:54;;;;;;;26.58;8.35;;;;;;;25.63;49.14;96792.63;5094195;28;20425;-74
2021/08/02 01:59:25;;;;;;;27.42;8.68;;;;;;;25.63;49.10;96800.84;5094119;28;20031;-74
2021/08/02 02:01:55;;;;;;;19.65;8.00;;;;;;;25.63;49.43;96795.34;5075854;28;20384;-74
2021/08/02 02:04:28;;;;;;;23.10;8.50;;;;;;;25.61;49.38;96797.47;5092704;28;20024;-74
2021/08/02 02:06:55;;;;;;;24.73;9.00;;;;;;;25.55;49.57;96793.69;5074956;28;20041;-74
2021/08/02 02:09:21;;;;;;;25.92;9.00;;;;;;;25.53;49.77;96782.09;5075750;28;20035;-74
2021/08/02 02:11:49;;;;;;;26.15;8.77;;;;;;;25.48;50.21;96783.72;5092724;28;20019;-75
2021/08/02 02:14:15;;;;;;;21.80;10.68;;;;;;;25.52;50.70;96785.03;5092388;28;20517;-74
2021/08/02 02:16:46;;;;;;;24.92;9.20;;;;;;;25.43;50.85;96787.09;5075557;28;20064;-74
2021/08/02 02:19:12;;;;;;;34.58;12.15;;;;;;;25.40;50.91;96783.91;5075691;28;20456;-72
2021/08/02 02:21:38;;;;;;;39.20;11.93;;;;;;;25.29;51.37;96794.41;5092400;28;20055;-73
2021/08/02 02:24:04;;;;;;;33.65;11.55;;;;;;;25.19;51.20;96801.31;5092189;28;20407;-74
2021/08/02 02:26:32;;;;;;;25.63;9.75;;;;;;;25.10;50.50;96800.63;5092368;28;20032;-74
2021/08/02 02:29:05;;;;;;;23.02;8.93;;;;;;;25.14;51.18;96803.81;5075182;28;20051;-75
2021/08/02 02:31:31;;;;;;;25.20;9.10;;;;;;;25.07;51.00;96819.38;5055380;28;20502;-74
2021/08/02 02:33:59;;;;;;;24.55;9.40;;;;;;;24.98;51.37;96817.84;5072054;28;20028;-73
2021/08/02 02:36:25;;;;;;;23.27;8.93;;;;;;;24.94;51.62;96819.31;5084052;28;20372;-74
2021/08/02 02:38:53;;;;;;;25.95;8.55;;;;;;;24.84;51.96;96822.41;5076458;28;20028;-74
2021/08/02 02:41:19;;;;;;;27.30;9.05;;;;;;;24.78;52.37;96820.44;5055069;28;20112;-75
2021/08/02 02:44:04;;;;;;;37.53;10.07;;;;;;;24.72;52.76;96821.25;5055028;28;20112;-71
2021/08/02 02:46:30;;;;;;;48.17;12.52;;;;;;;24.69;52.69;96821.66;5085458;28;20047;-73
2021/08/02 02:48:57;;;;;;;54.58;14.82;;;;;;;24.63;52.81;96826.03;5091961;28;20028;-73
2021/08/02 02:51:25;;;;;;;37.55;11.15;;;;;;;24.51;53.50;96815.84;5088511;28;20028;-73
2021/08/02 02:53:52;;;;;;;22.73;9.65;;;;;;;24.52;53.55;96820.25;5054938;28;20035;-73
2021/08/02 02:56:18;;;;;;;37.15;12.68;;;;;;;24.41;54.10;96812.59;5054552;28;20128;-73
2021/08/02 02:58:47;;;;;;;38.90;14.30;;;;;;;24.40;54.44;96819.09;5071573;28;20024;-73
2021/08/02 03:01:15;;;;;;;33.92;10.30;;;;;;;24.32;54.36;96811.91;5072298;28;20553;-73
2021/08/02 03:03:45;;;;;;;40.20;13.63;;;;;;;24.28;54.86;96822.41;5071262;28;20016;-73
2021/08/02 03:06:11;;;;;;;29.33;11.40;;;;;;;24.31;54.60;96814.84;5054388;28;20032;-73
2021/08/02 03:08:38;;;;;;;25.00;9.60;;;;;;;24.25;54.72;96806.41;5072387;28;20016;-73
2021/08/02 03:11:04;;;;;;;28.40;9.85;;;;;;;24.28;54.77;96811.47;5054760;28;20193;-74
2021/08/02 03:13:30;;;;;;;25.05;9.15;;;;;;;24.23;54.47;96813.97;5079667;28;20028;-74
2021/08/02 03:15:56;;;;;;;18.70;8.30;;;;;;;24.20;54.89;96802.56;5054479;28;20395;-74
2021/08/02 03:18:21;;;;;;;22.40;8.82;;;;;;;24.16;54.86;96802.13;5070969;28;20032;-74
2021/08/02 03:20:47;;;;;;;36.55;8.07;;;;;;;24.06;54.77;96790.63;5071069;28;20031;-74
2021/08/02 03:23:20;;;;;;;26.80;8.48;;;;;;;24.02;55.52;96810.38;5071656;28;20033;-74
2021/08/02 03:25:51;;;;;;;31.58;8.02;;;;;;;24.09;55.41;96817.56;5091427;28;20031;-74
2021/08/02 03:28:31;;;;;;;21.70;10.05;;;;;;;23.99;55.71;96806.16;5091098;28;20419;-74
2021/08/02 03:30:59;;;;;;;51.97;20.85;;;;;;;24.03;55.65;96801.97;5091339;28;20085;-74
2021/08/02 03:33:31;;;;;;;35.30;13.48;;;;;;;24.11;55.82;96799.16;5090950;28;20475;-74
2021/08/02 03:35:58;;;;;;;29.45;12.70;;;;;;;24.08;55.83;96788.56;5091118;28;20027;-74
2021/08/02 03:38:25;;;;;;;44.10;16.90;;;;;;;24.11;55.92;96798.28;5090874;28;20036;-74
2021/08/02 03:40:51;;;;;;;28.42;11.50;;;;;;;24.16;55.47;96796.66;5090970;28;20437;-74
2021/08/02 03:43:17;;;;;;;34.85;12.98;;;;;;;24.18;55.64;96805.50;5090571;28;20036;-74
2021/08/02 03:45:43;;;;;;;30.02;11.90;;;;;;;24.21;55.52;96805.09;5090919;28;20074;-74
2021/08/02 03:48:10;;;;;;;62.22;12.60;;;;;;;24.24;56.03;96810.16;5073689;28;20073;-75
2021/08/02 03:50:37;;;;;;;30.55;12.93;;;;;;;24.34;55.64;96800.75;5090710;28;20119;-74
2021/08/02 03:53:03;;;;;;;40.30;10.50;;;;;;;24.41;55.43;96804.41;5083403;28;20112;-74
2021/08/02 03:55:31;;;;;;;30.27;10.40;;;;;;;24.44;55.08;96802.13;5070152;28;20111;-74
2021/08/02 03:57:56;;;;;;;26.40;10.43;;;;;;;24.54;54.78;96804.50;5068248;28;20382;-74
2021/08/02 04:00:23;;;;;;;30.52;10.70;;;;;;;24.67;54.35;96804.59;5090370;28;20042;-74
2021/08/02 04:02:49;;;;;;;32.92;13.20;;;;;;;24.74;54.42;96794.53;5090467;28;20028;-74
2021/08/02 04:05:16;;;;;;;31.05;11.20;;;;;;;24.83;53.79;96803.44;5090249;28;20019;-74
2021/08/02 04:07:42;;;;;;;37.90;10.77;;;;;;;24.83;53.46;96804.28;5073502;28;20103;-75
2021/08/02 04:10:08;;;;;;;23.13;8.15;;;;;;;24.90;52.91;96807.91;5090739;28;20107;-74
2021/08/02 04:12:34;;;;;;;47.00;9.98;;;;;;;24.94;52.94;96816.56;5090200;28;20093;-74
2021/08/02 04:14:59;;;;;;;32.53;8.73;;;;;;;24.99;52.79;96809.44;5090336;28;20032;-74
2021/08/02 04:17:25;;;;;;;38.92;8.23;;;;;;;25.03;52.38;96810.72;5089822;28;20106;-75
2021/08/02 04:19:50;;;;;;;24.23;7.97;;;;;;;24.96;52.36;96809.00;5073343;28;20111;-74
2021/08/02 04:22:16;;;;;;;40.80;8.35;;;;;;;25.01;52.21;96811.97;5064626;28;20041;-73
2021/08/02 04:24:58;;;;;;;22.67;8.45;;;;;;;25.03;52.80;96805.25;5065719;28;20024;-77
2021/08/02 04:27:23;;;;;;;33.47;8.45;;;;;;;25.17;52.55;96812.47;5091067;28;20525;-74
2021/08/02 04:29:49;;;;;;;30.92;8.63;;;;;;;25.27;52.15;96801.97;5090680;28;20032;-75
2021/08/02 04:32:14;;;;;;;25.98;8.38;;;;;;;25.74;51.61;96817.53;5073142;28;20415;-74
2021/08/02 04:34:40;;;;;;;31.35;8.50;;;;;;;26.49;49.12;96818.25;5090900;28;20444;-74
2021/08/02 04:37:06;;;;;;;37.58;9.20;;;;;;;26.73;48.56;96823.09;5073148;28;20027;-75
2021/08/02 04:39:31;;;;;;;37.20;8.40;;;;;;;26.49;49.00;96821.00;5089935;28;20024;-74
2021/08/02 04:41:57;;;;;;;31.42;8.35;;;;;;;26.20;49.58;96819.53;5089993;28;20064;-75
2021/08/02 04:44:22;;;;;;;32.45;8.05;;;;;;;26.16;50.21;96808.13;5089663;28;20034;-74
2021/08/02 04:46:48;;;;;;;48.03;9.13;;;;;;;26.21;49.76;96823.97;5090088;28;20032;-74
2021/08/02 04:49:14;;;;;;;41.60;9.38;;;;;;;26.22;50.11;96822.88;5089993;28;20027;-74
2021/08/02 04:51:39;;;;;;;34.65;9.65;;;;;;;26.19;50.35;96821.41;5090811;28;20039;-74
2021/08/02 04:54:05;;;;;;;36.20;9.25;;;;;;;26.26;50.47;96825.00;5091006;28;20028;-74
2021/08/02 04:56:31;;;;;;;31.02;8.88;;;;;;;26.17;49.82;96812.56;5072614;28;20964;-74
2021/08/02 04:58:56;;;;;;;27.00;9.90;;;;;;;26.27;49.42;96820.38;5089716;28;20056;-74
2021/08/02 05:01:22;;;;;;;26.75;10.38;;;;;;;26.22;49.73;96823.75;5072376;28;20116;-74
2021/08/02 05:03:48;;;;;;;36.90;9.98;;;;;;;26.25;50.45;96817.84;5070750;28;20541;-73
2021/08/02 05:06:13;;;;;;;30.92;9.38;;;;;;;26.26;50.79;96819.53;5052735;28;20036;-74
2021/08/02 05:08:39;;;;;;;32.60;9.77;;;;;;;26.37;51.02;96829.00;5052773;28;20420;-75
2021/08/02 05:11:04;;;;;;;41.47;10.23;;;;;;;26.50;50.83;96836.38;5052822;28;20414;-74
2021/08/02 05:13:30;;;;;;;38.67;10.13;;;;;;;26.70;50.12;96818.03;5052599;28;20031;-74
2021/08/02 05:15:55;;;;;;;55.45;10.82;;;;;;;26.85;50.51;96832.38;5069573;28;20020;-75
2021/08/02 05:18:21;;;;;;;51.33;11.32;;;;;;;26.96;49.66;96820.72;5069445;28;20028;-74
2021/08/02 05:20:47;;;;;;;39.28;10.32;;;;;;;27.07;48.94;96825.53;5052291;28;20024;-75
2021/08/02 05:23:13;;;;;;;35.30;9.80;;;;;;;27.32;48.52;96829.25;5069480;28;20118;-74
2021/08/02 05:25:39;;;;;;;31.63;10.00;;;;;;;27.68;47.93;96831.47;5071210;28;20032;-75
2021/08/02 05:28:05;;;;;;;32.42;9.95;;;;;;;28.04;46.82;96825.31;5089698;28;20368;-74
2021/08/02 05:30:31;;;;;;;24.25;10.63;;;;;;;28.97;44.04;96831.78;5089165;28;20153;-75
2021/08/02 05:32:56;;;;;;;32.58;9.25;;;;;;;31.05;40.38;96826.28;5072554;28;20110;-75
2021/08/02 05:35:22;;;;;;;44.03;10.40;;;;;;;32.72;37.18;96838.81;5089651;28;20073;-73
2021/08/02 05:37:48;;;;;;;32.15;10.98;;;;;;;34.54;34.35;96838.47;5072389;28;20024;-73
2021/08/02 05:40:14;;;;;;;55.58;11.82;;;;;;;35.84;32.40;96823.81;5089470;28;20390;-75
2021/08/02 05:42:40;;;;;;;41.42;9.50;;;;;;;36.16;31.38;96826.47;5092252;28;20502;-73
2021/08/02 05:45:07;;;;;;;34.13;9.35;;;;;;;36.64;30.36;96836.31;5076110;28;20028;-72
2021/08/02 05:47:33;;;;;;;30.10;8.48;;;;;;;37.22;29.56;96828.53;5093041;28;20107;-73
2021/08/02 05:49:59;;;;;;;44.83;7.70;;;;;;;37.81;28.38;96815.53;5076188;28;20027;-75
2021/08/02 05:52:24;;;;;;;41.90;9.38;;;;;;;37.89;28.23;96812.16;5094092;28;20020;-73
2021/08/02 05:54:50;;;;;;;31.08;8.23;;;;;;;38.81;27.29;96818.06;5075671;28;20092;-75
2021/08/02 05:57:20;;;;;;;31.70;7.45;;;;;;;39.85;25.40;96822.91;5077986;28;20028;-74
2021/08/02 05:59:46;;;;;;;30.27;8.40;;;;;;;40.95;24.48;96825.28;5074446;28;20170;-75
2021/08/02 06:02:11;;;;;;;30.83;7.78;;;;;;;41.45;23.65;96828.34;5092430;28;20107;-73
2021/08/02 06:04:37;;;;;;;32.15;8.50;;;;;;;41.65;23.69;96834.38;5093622;28;20028;-75
2021/08/02 06:07:03;;;;;;;26.48;7.50;;;;;;;42.43;22.42;96824.06;5093007;28;20028;-73
2021/08/02 06:09:28;;;;;;;47.17;8.32;;;;;;;43.22;21.05;96825.28;5093629;28;20452;-74
2021/08/02 06:11:54;;;;;;;29.48;7.32;;;;;;;41.87;22.43;96833.69;5093002;28;20081;-74
2021/08/02 06:14:19;;;;;;;26.75;7.43;;;;;;;43.24;21.45;96836.22;5093765;28;20533;-74
2021/08/02 06:16:45;;;;;;;34.22;8.20;;;;;;;44.04;20.99;96839.66;5094763;28;20028;-75
2021/08/02 06:19:11;;;;;;;141.23;15.65;;;;;;;44.06;20.71;96842.97;5075897;28;20050;-75
2021/08/02 06:21:36;;;;;;;55.63;8.55;;;;;;;44.78;20.35;96848.16;5075276;28;20059;-75
2021/08/02 06:24:02;;;;;;;65.50;10.05;;;;;;;45.76;19.08;96854.72;5072666;28;20491;-77
2021/08/02 06:26:30;;;;;;;29.60;7.43;;;;;;;46.35;18.61;96853.97;5072782;28;20465;-77
2021/08/02 06:28:56;;;;;;;29.13;6.43;;;;;;;47.34;17.83;96848.25;5072683;28;20030;-77
2021/08/02 06:31:21;;;;;;;31.08;7.82;;;;;;;48.09;16.97;96848.91;5086231;28;20020;-76
2021/08/02 06:33:47;;;;;;;53.03;7.72;;;;;;;48.11;16.91;96857.91;5052501;28;20494;-75
2021/08/02 06:36:12;;;;;;;54.30;7.50;;;;;;;47.97;16.63;96848.91;5069479;28;20036;-76
2021/08/02 06:38:38;;;;;;;37.50;6.93;;;;;;;47.39;16.23;96841.50;5052554;28;20086;-75
2021/08/02 06:41:04;;;;;;;40.33;7.75;;;;;;;47.51;16.83;96847.25;5069052;28;20117;-75
2021/08/02 06:43:30;;;;;;;45.22;7.00;;;;;;;48.61;15.11;96853.91;5059418;28;20097;-75
2021/08/02 06:45:56;;;;;;;64.45;7.75;;;;;;;49.33;15.15;96842.34;5072156;28;20103;-75
2021/08/02 06:48:22;;;;;;;54.53;7.80;;;;;;;49.44;15.35;96847.53;5060810;28;20512;-76
2021/08/02 06:50:48;;;;;;;58.47;7.03;;;;;;;49.16;15.52;96842.66;5069403;28;20016;-75
2021/08/02 06:53:14;;;;;;;44.03;7.55;;;;;;;49.19;15.44;96838.25;5051677;28;20111;-75
2021/08/02 06:55:40;;;;;;;40.88;7.40;;;;;;;49.90;15.13;96843.94;5052256;28;20468;-75
2021/08/02 06:58:05;;;;;;;60.90;7.55;;;;;;;51.03;14.25;96840.25;5068648;28;20028;-75
2021/08/02 07:00:31;;;;;;;29.20;6.70;;;;;;;51.28;13.89;96833.88;5052450;28;20430;-75
2021/08/02 07:06:05;;;;;;;36.25;6.90;;;;;;;50.36;13.58;96814.66;5072741;28;20470;-80
2021/08/02 07:08:31;;;;;;;41.15;6.78;;;;;;;49.72;12.83;96832.06;5082420;28;20024;-75
2021/08/02 07:10:57;;;;;;;22.48;5.18;;;;;;;50.34;12.67;96824.75;5088669;28;20121;-74
2021/08/02 07:13:22;;;;;;;60.65;7.10;;;;;;;50.82;12.86;96834.88;5088654;28;20383;-76
2021/08/02 07:15:48;;;;;;;75.45;8.73;;;;;;;50.38;13.25;96837.91;5088640;28;20509;-73
2021/08/02 07:18:13;;;;;;;33.85;7.15;;;;;;;50.27;14.01;96851.00;5070518;28;20048;-75
2021/08/02 07:20:39;;;;;;;33.03;6.45;;;;;;;51.85;12.61;96840.72;5068367;28;20032;-75
2021/08/02 07:23:05;;;;;;;39.38;6.88;;;;;;;51.78;12.04;96841.41;5050823;28;20454;-74
2021/08/02 07:25:31;;;;;;;38.83;8.20;;;;;;;52.18;12.03;96832.34;5051586;28;20075;-73
2021/08/02 07:27:57;;;;;;;33.50;6.65;;;;;;;51.51;11.46;96827.41;5051611;28;20115;-83
2021/08/02 07:30:22;;;;;;;27.67;5.50;;;;;;;52.02;12.27;96848.00;5051592;28;20035;-74
2021/08/02 07:32:48;;;;;;;27.27;7.25;;;;;;;52.45;11.48;96838.97;5051388;28;20034;-74
2021/08/02 07:35:14;;;;;;;44.60;7.50;;;;;;;53.09;12.00;96840.75;5067556;28;20077;-74
2021/08/02 07:37:41;;;;;;;21.88;5.60;;;;;;;52.75;10.66;96833.31;5067891;28;20098;-74
2021/08/02 07:40:08;;;;;;;23.38;4.90;;;;;;;53.70;11.57;96837.44;5085336;28;20550;-74
2021/08/02 07:42:35;;;;;;;40.67;6.63;;;;;;;52.44;11.84;96826.69;5087680;28;20032;-74
2021/08/02 07:45:00;;;;;;;80.03;8.20;;;;;;;51.97;10.85;96818.50;5089742;28;20031;-73
2021/08/02 07:47:26;;;;;;;29.20;6.07;;;;;;;50.39;11.80;96815.94;5088706;28;20441;-73
2021/08/02 07:49:52;;;;;;;49.38;6.47;;;;;;;50.65;10.69;96816.19;5087981;28;20042;-74
2021/08/02 07:52:17;;;;;;;29.17;6.13;;;;;;;49.88;11.19;96807.31;5070683;28;20088;-74
2021/08/02 07:54:43;;;;;;;50.33;6.43;;;;;;;49.32;11.42;96805.72;5070765;28;20065;-73
2021/08/02 07:57:08;;;;;;;18.90;4.93;;;;;;;49.78;11.12;96807.03;5087560;28;20398;-74
2021/08/02 07:59:35;;;;;;;49.25;6.70;;;;;;;50.35;11.14;96815.03;5087462;28;20048;-73
2021/08/02 08:02:01;;;;;;;45.45;6.30;;;;;;;49.69;11.08;96806.38;5079889;28;20032;-73
2021/08/02 08:04:26;;;;;;;24.15;5.63;;;;;;;49.56;10.96;96799.09;5066622;28;20040;-73
2021/08/02 08:06:52;;;;;;;24.23;4.72;;;;;;;48.53;11.14;96789.50;5050897;28;20120;-73
2021/08/02 08:09:17;;;;;;;20.30;4.95;;;;;;;47.96;11.91;96793.34;5067322;28;20427;-74
2021/08/02 08:11:43;;;;;;;15.20;4.80;;;;;;;47.97;11.69;96788.47;5080533;28;20032;-73
2021/08/02 08:14:09;;;;;;;42.72;6.65;;;;;;;47.53;12.18;96788.19;5088818;28;20031;-73
2021/08/02 08:16:34;;;;;;;53.00;6.32;;;;;;;48.36;11.94;96791.41;5069788;28;20580;-73
2021/08/02 08:19:00;;;;;;;31.48;5.93;;;;;;;48.52;11.79;96793.53;5087326;28;20093;-73
2021/08/02 08:21:26;;;;;;;27.42;5.68;;;;;;;48.21;11.62;96794.97;5085060;28;20058;-87
2021/08/02 08:23:52;;;;;;;27.85;6.95;;;;;;;49.08;11.96;96806.66;5064946;28;20039;-89
2021/08/02 08:26:19;;;;;;;22.08;5.53;;;;;;;48.59;11.73;96788.94;5047425;28;20477;-87
2021/08/02 08:28:45;;;;;;;28.27;5.88;;;;;;;48.78;12.16;96800.47;5075967;28;20031;-87
2021/08/02 08:31:11;;;;;;;32.20;7.28;;;;;;;49.64;11.35;96798.13;5051823;28;20119;-87
2021/08/02 08:33:36;;;;;;;26.52;5.65;;;;;;;49.48;10.99;96802.91;5070509;28;20034;-87
2021/08/02 08:36:02;;;;;;;23.98;5.60;;;;;;;49.59;11.19;96809.75;5081674;28;20031;-89
2021/08/02 08:38:28;;;;;;;28.50;5.53;;;;;;;50.09;11.27;96811.94;5073915;28;20063;-89
2021/08/02 08:40:53;;;;;;;30.98;6.85;;;;;;;49.30;11.75;96789.06;5062350;28;20034;-89
2021/08/02 08:43:20;;;;;;;27.15;5.18;;;;;;;50.05;11.04;96811.84;5065417;28;20042;-89
2021/08/02 08:45:46;;;;;;;156.95;10.05;;;;;;;49.85;10.70;96787.28;5066318;28;20028;-89
2021/08/02 08:48:12;;;;;;;27.35;5.38;;;;;;;49.39;11.53;96800.25;5074359;28;20035;-89
2021/08/02 08:50:39;;;;;;;32.92;6.07;;;;;;;50.15;11.08;96799.06;5063974;28;20032;-89
2021/08/02 08:53:06;;;;;;;27.45;6.00;;;;;;;50.12;10.57;96800.59;5068420;28;20024;-90
2021/08/02 08:55:32;;;;;;;61.63;7.10;;;;;;;50.17;10.56;96796.66;5071681;28;20406;-89
2021/08/02 08:58:00;;;;;;;144.15;12.70;;;;;;;49.82;10.60;96791.69;5067640;28;20036;-89
2021/08/02 09:00:27;;;;;;;19.17;5.20;;;;;;;49.54;11.16;96799.44;5076350;28;20028;-88
2021/08/02 09:02:54;;;;;;;19.92;5.60;;;;;;;49.70;10.38;96788.13;5073146;28;20021;-89
2021/08/02 09:05:20;;;;;;;25.25;6.03;;;;;;;50.07;10.80;96789.50;5076688;28;20055;-89
2021/08/02 09:07:47;;;;;;;27.58;5.22;;;;;;;49.80;10.59;96787.56;5068401;28;20059;-89
2021/08/02 09:10:15;;;;;;;49.92;6.47;;;;;;;49.28;10.87;96782.91;5074933;28;20031;-89
2021/08/02 09:12:51;;;;;;;27.85;5.53;;;;;;;49.37;10.53;96792.09;5075675;28;20024;-90
2021/08/02 09:15:18;;;;;;;38.58;5.18;;;;;;;48.68;11.53;96764.03;5061025;28;20024;-88
2021/08/02 09:17:43;;;;;;;35.45;5.90;;;;;;;48.79;11.58;96775.72;5058348;28;20032;-89
2021/08/02 09:20:23;;;;;;;31.25;5.88;;;;;;;48.90;11.16;96765.50;5064813;28;20032;-88
2021/08/02 09:22:50;;;;;;;47.78;6.30;;;;;;;48.33;11.23;96763.75;5078880;28;20074;-89
2021/08/02 09:25:15;;;;;;;29.10;5.53;;;;;;;48.70;11.18;96772.22;5078146;28;20036;-88
2021/08/02 09:27:42;;;;;;;22.05;6.05;;;;;;;48.65;11.17;96764.75;5091918;28;20119;-88
2021/08/02 09:30:27;;;;;;;34.05;6.25;;;;;;;47.89;11.65;96759.03;5063315;28;20477;-88
2021/08/02 09:33:03;;;;;;;33.97;6.30;;;;;;;48.17;11.39;96759.97;5061457;28;20471;-88
2021/08/02 09:35:34;;;;;;;29.35;5.80;;;;;;;48.25;11.34;96770.38;5080269;28;20475;-88
2021/08/02 09:38:11;;;;;;;25.95;5.80;;;;;;;48.68;11.29;96763.22;5075227;28;20071;-90
2021/08/02 09:40:37;;;;;;;28.92;5.80;;;;;;;49.26;11.27;96773.88;5068183;28;20028;-90
2021/08/02 09:43:05;;;;;;;56.20;6.50;;;;;;;49.20;11.12;96755.41;5077629;28;20379;-90
2021/08/02 09:45:54;;;;;;;16.65;4.90;;;;;;;48.37;11.23;96752.50;5073412;28;20134;-91
2021/08/02 09:48:26;;;;;;;21.50;5.20;;;;;;;48.13;11.74;96756.19;5079306;28;20158;-89
2021/08/02 09:50:52;;;;;;;23.95;5.75;;;;;;;48.21;11.42;96735.34;5069288;28;20093;-91
2021/08/02 09:53:42;;;;;;;40.20;6.68;;;;;;;47.51;11.73;96732.97;5079088;28;20028;-89
2021/08/02 09:57:05;;;;;;;;;;;;;;;;;;;;;
2021/08/02 09:59:31;;;;;;;26.92;5.00;;;;;;;48.41;11.74;96746.94;5094107;28;20134;-90
2021/08/02 10:01:57;;;;;;;21.27;5.70;;;;;;;48.96;10.53;96746.19;5068290;28;20028;-91
2021/08/02 10:04:24;;;;;;;25.42;5.90;;;;;;;49.13;11.14;96757.25;5064239;28;20098;-90
2021/08/02 10:06:50;;;;;;;19.67;5.40;;;;;;;48.47;11.03;96729.28;5072524;28;20417;-89
2021/08/02 10:09:16;;;;;;;15.68;5.13;;;;;;;47.34;11.78;96732.00;5070540;28;20059;-91
2021/08/02 10:11:42;;;;;;;22.00;5.35;;;;;;;46.94;11.90;96730.94;5066299;28;20048;-89
2021/08/02 10:14:10;;;;;;;25.00;5.78;;;;;;;46.50;12.37;96714.66;5063864;28;20020;-90
2021/08/02 10:16:38;;;;;;;24.58;5.80;;;;;;;47.73;11.68;96733.34;5062895;28;20035;-90
2021/08/02 10:19:06;;;;;;;22.33;4.90;;;;;;;48.21;11.14;96735.34;5094544;28;20566;-90
2021/08/02 10:21:51;;;;;;;36.05;6.60;;;;;;;49.37;11.24;96762.84;5071285;28;20072;-90
2021/08/02 10:24:17;;;;;;;21.63;5.60;;;;;;;49.84;10.75;96749.44;5069963;28;20055;-90
2021/08/02 10:26:59;;;;;;;41.03;6.60;;;;;;;51.30;10.47;96750.75;5068217;28;20060;-90
2021/08/02 10:29:43;;;;;;;60.78;8.73;;;;;;;52.45;9.51;96759.78;5064095;28;20377;-90
2021/08/02 10:32:27;;;;;;;29.00;5.55;;;;;;;52.76;9.18;96758.59;5075821;28;20020;-90
2021/08/02 10:34:54;;;;;;;26.67;5.90;;;;;;;52.95;9.09;96740.41;5069658;28;20119;-90
2021/08/02 10:37:37;;;;;;;31.05;5.75;;;;;;;52.42;9.55;96726.25;5096192;28;20024;-90
2021/08/02 10:40:04;;;;;;;47.90;6.38;;;;;;;50.88;10.15;96716.50;5062668;28;20023;-90
2021/08/02 10:42:30;;;;;;;20.77;6.30;;;;;;;50.66;10.55;96743.75;5070824;28;20033;-90
2021/08/02 10:45:51;;;;;;;;;;;;;;;;;;;;;
2021/08/02 10:48:33;;;;;;;23.92;5.40;;;;;;;49.27;10.90;96709.28;5080292;28;20087;-89
2021/08/02 10:51:15;;;;;;;20.45;5.45;;;;;;;49.76;10.49;96715.50;5067837;28;20023;-90
2021/08/02 10:53:44;;;;;;;16.38;5.20;;;;;;;49.56;10.68;96725.97;5067352;28;20054;-90
2021/08/02 10:56:10;;;;;;;26.63;5.38;;;;;;;47.76;11.73;96714.78;5059756;28;20036;-90
2021/08/02 10:58:39;;;;;;;21.48;5.13;;;;;;;47.66;11.90;96709.59;5056938;28;20445;-90
2021/08/02 11:01:09;;;;;;;34.22;6.57;;;;;;;48.19;11.72;96712.16;5074028;28;20549;-91
2021/08/02 11:03:39;;;;;;;34.10;6.03;;;;;;;47.89;12.35;96705.13;5072507;28;20028;-90
2021/08/02 11:06:16;;;;;;;34.73;6.07;;;;;;;47.94;11.77;96699.19;5068784;28;20828;-90
2021/08/02 11:08:53;;;;;;;34.08;5.88;;;;;;;48.06;11.82;96701.19;5077906;28;20028;-90
2021/08/02 11:11:19;;;;;;;26.60;5.50;;;;;;;48.16;11.46;96689.34;5065907;28;20021;-91
2021/08/02 11:13:45;;;;;;;21.02;5.43;;;;;;;48.85;11.64;96698.41;5073710;28;20023;-90
2021/08/02 11:16:10;;;;;;;26.38;6.03;;;;;;;49.15;10.99;96698.84;5076283;28;20024;-91
2021/08/02 11:18:36;;;;;;;27.35;6.13;;;;;;;49.63;10.91;96689.16;5061299;28;20381;-91
2021/08/02 11:21:02;;;;;;;29.02;7.03;;;;;;;50.50;10.46;96682.28;5067537;28;20035;-90
2021/08/02 11:23:41;;;;;;;26.17;6.40;;;;;;;50.14;10.86;96684.34;5072744;28;20024;-91
2021/08/02 11:26:08;;;;;;;30.20;6.05;;;;;;;49.06;11.05;96674.59;5068049;28;20051;-91
2021/08/02 11:28:44;;;;;;;31.20;6.13;;;;;;;49.17;11.30;96676.53;5066071;28;20027;-91
2021/08/02 11:31:11;;;;;;;27.23;6.35;;;;;;;48.92;11.66;96675.00;5066499;28;20407;-91
2021/08/02 11:33:38;;;;;;;29.42;6.40;;;;;;;48.49;11.41;96683.50;5067321;28;20373;-91
2021/08/02 11:36:04;;;;;;;22.23;5.22;;;;;;;48.50;11.27;96682.28;5066762;28;20027;-88
2021/08/02 11:38:37;;;;;;;35.47;5.97;;;;;;;49.27;11.19;96690.22;5078946;28;20447;-89
2021/08/02 11:41:04;;;;;;;25.88;5.60;;;;;;;50.60;10.34;96682.53;5060212;28;20497;-91